TAF KONP
KONP 280520Z 2806/2906 19013G20KT 2SM RA OVC004=
METAR KONP
WC KONP
WS KONP
WV KONP